Time;durP1;ratioP1;P1;durP2;ratioP2;P2;SDS_P1;SDS_P2;PMS_P1;PMS_P2;Temp;Humidity;BMP_temperature;BMP_pressure;BME280_temperature;BME280_humidity;BME280_pressure;Samples;Min_cycle;Max_cycle;Signal;HPM_P1;HPM_P2
2021/01/01 00:00:16;;;;;;;;;;;22.70;77.20;;;;;;5071388;28;20028;-51
2021/01/01 00:02:44;;;;;;;3.67;1.10;;;22.70;77.20;;;;;;5065887;28;19915;-51
2021/01/01 00:05:17;;;;;;;2.72;1.10;;;22.70;77.00;;;;;;5068290;28;20029;-55
2021/01/01 00:07:45;;;;;;;6.00;1.10;;;22.70;77.00;;;;;;5060610;28;20061;-55
2021/01/01 00:10:14;;;;;;;4.90;1.40;;;22.70;76.80;;;;;;5070012;28;20020;-51
2021/01/01 00:12:42;;;;;;;4.18;1.25;;;22.70;76.70;;;;;;5070174;28;20036;-52
2021/01/01 00:15:11;;;;;;;5.03;1.55;;;22.80;77.00;;;;;;5069195;28;20032;-54
2021/01/01 00:17:39;;;;;;;4.60;1.20;;;22.80;76.90;;;;;;5065010;28;20056;-53
2021/01/01 00:20:09;;;;;;;3.38;1.10;;;22.80;76.70;;;;;;5070349;28;20044;-54
2021/01/01 00:22:37;;;;;;;3.03;1.00;;;22.80;76.80;;;;;;5068580;28;20123;-56
2021/01/01 00:25:05;;;;;;;2.35;1.00;;;22.90;77.00;;;;;;5069374;28;20173;-51
2021/01/01 00:27:32;;;;;;;3.47;1.10;;;22.90;77.50;;;;;;5066845;28;20029;-53
2021/01/01 00:30:00;;;;;;;3.78;1.17;;;22.90;76.80;;;;;;5074752;28;20043;-47
2021/01/01 00:32:27;;;;;;;1.88;0.85;;;22.90;76.90;;;;;;5074711;28;20162;-57
2021/01/01 00:34:55;;;;;;;8.00;2.08;;;22.90;76.80;;;;;;5073370;28;20495;-52
2021/01/01 00:37:22;;;;;;;4.00;1.13;;;22.90;76.70;;;;;;5069465;28;20040;-49
2021/01/01 00:39:50;;;;;;;2.65;0.90;;;22.90;76.60;;;;;;5074196;28;20021;-53
2021/01/01 00:42:17;;;;;;;5.07;0.95;;;22.90;76.70;;;;;;5074241;28;20025;-50
2021/01/01 00:44:44;;;;;;;4.70;1.73;;;22.90;76.60;;;;;;5073678;28;20028;-48
2021/01/01 00:47:13;;;;;;;3.90;0.95;;;22.90;76.60;;;;;;5068565;28;20581;-50
2021/01/01 00:49:40;;;;;;;2.05;1.00;;;22.90;76.40;;;;;;5073319;28;20073;-53
2021/01/01 00:52:08;;;;;;;3.42;1.23;;;22.90;76.40;;;;;;5070329;28;20035;-50
2021/01/01 00:54:35;;;;;;;3.50;1.38;;;22.90;76.50;;;;;;5073368;28;20031;-54
2021/01/01 00:57:02;;;;;;;3.40;1.00;;;22.90;76.30;;;;;;5069728;28;20025;-57
2021/01/01 00:59:30;;;;;;;4.85;0.88;;;22.90;76.50;;;;;;5072168;28;20036;-57
2021/01/01 01:01:57;;;;;;;3.42;1.33;;;22.90;76.80;;;;;;5073610;28;20378;-56
2021/01/01 01:04:24;;;;;;;3.63;1.20;;;22.90;76.50;;;;;;5073097;28;20028;-55
2021/01/01 01:06:52;;;;;;;3.80;1.33;;;22.90;76.40;;;;;;5072150;28;20025;-51
2021/01/01 01:09:19;;;;;;;2.28;1.02;;;22.90;75.90;;;;;;5068975;28;20339;-57
2021/01/01 01:11:46;;;;;;;3.78;0.80;;;22.90;76.20;;;;;;5073246;28;20416;-61
2021/01/01 01:14:14;;;;;;;3.80;1.10;;;22.90;76.40;;;;;;5073134;28;20028;-63
2021/01/01 01:16:42;;;;;;;1.90;0.90;;;23.00;76.30;;;;;;5073213;28;20078;-62
2021/01/01 01:19:09;;;;;;;3.20;1.02;;;23.00;76.20;;;;;;5067653;28;20113;-60
2021/01/01 01:21:36;;;;;;;2.65;1.00;;;22.90;76.20;;;;;;5073367;28;20047;-55
2021/01/01 01:24:04;;;;;;;8.52;1.35;;;22.90;75.60;;;;;;5072710;28;20045;-59
2021/01/01 01:26:31;;;;;;;2.35;0.80;;;22.90;75.80;;;;;;5072231;28;20029;-57
2021/01/01 01:28:59;;;;;;;3.65;1.50;;;23.00;76.30;;;;;;5067195;28;20467;-56
2021/01/01 01:31:26;;;;;;;3.72;1.48;;;23.00;76.30;;;;;;5072585;28;20036;-56
2021/01/01 01:33:53;;;;;;;3.28;0.90;;;23.00;76.20;;;;;;5073195;28;20028;-54
2021/01/01 01:36:21;;;;;;;1.88;0.93;;;23.00;76.40;;;;;;5072541;28;20037;-56
2021/01/01 01:38:48;;;;;;;2.33;0.90;;;23.00;75.80;;;;;;5062416;28;20456;-52
2021/01/01 01:41:15;;;;;;;2.53;0.95;;;23.00;76.10;;;;;;5072725;28;20166;-55
2021/01/01 01:43:43;;;;;;;9.70;1.20;;;23.00;76.50;;;;;;5072481;28;20068;-55
2021/01/01 01:46:10;;;;;;;2.60;1.00;;;23.00;75.90;;;;;;5072292;28;20027;-50
2021/01/01 01:48:39;;;;;;;4.25;1.23;;;23.00;76.20;;;;;;5067004;28;20528;-54
2021/01/01 01:51:10;;;;;;;2.20;1.00;;;23.00;75.90;;;;;;5072448;28;20029;-51
2021/01/01 01:53:45;;;;;;;6.03;1.10;;;23.00;75.70;;;;;;5072627;28;20099;-54
2021/01/01 01:56:12;;;;;;;3.47;1.30;;;23.00;75.80;;;;;;5071959;28;20017;-51
2021/01/01 01:58:42;;;;;;;3.17;1.42;;;23.00;76.00;;;;;;5067072;28;20350;-61
2021/01/01 02:01:11;;;;;;;7.90;1.50;;;23.00;75.90;;;;;;5072653;28;20020;-55
2021/01/01 02:03:38;;;;;;;7.47;1.75;;;23.00;75.80;;;;;;5072278;28;20395;-56
2021/01/01 02:06:06;;;;;;;5.18;1.77;;;23.00;76.00;;;;;;5071876;28;20121;-58
2021/01/01 02:08:34;;;;;;;6.55;1.50;;;23.10;76.00;;;;;;5065130;28;20383;-54
2021/01/01 02:11:03;;;;;;;3.58;1.60;;;23.10;75.30;;;;;;5072319;28;20043;-62
2021/01/01 02:13:32;;;;;;;4.50;1.30;;;23.10;75.70;;;;;;5072228;28;20032;-61
2021/01/01 02:16:00;;;;;;;4.10;1.05;;;23.10;75.20;;;;;;5071805;28;20021;-59
2021/01/01 02:18:38;;;;;;;6.65;1.55;;;23.10;75.10;;;;;;5064928;28;20028;-56
2021/01/01 02:21:07;;;;;;;4.43;1.50;;;23.10;75.80;;;;;;5071355;28;20048;-56
2021/01/01 02:23:38;;;;;;;4.00;1.20;;;23.10;75.50;;;;;;5068412;28;20044;-58
2021/01/01 02:26:06;;;;;;;3.42;1.63;;;23.10;75.60;;;;;;5067821;28;20021;-60
2021/01/01 02:28:33;;;;;;;4.35;1.55;;;23.10;75.70;;;;;;5062505;28;20032;-58
2021/01/01 02:31:01;;;;;;;5.30;1.42;;;23.10;75.80;;;;;;5072120;28;20056;-55
2021/01/01 02:33:29;;;;;;;2.70;1.23;;;23.10;75.70;;;;;;5070531;28;20551;-58
2021/01/01 02:35:56;;;;;;;3.45;1.20;;;23.10;75.00;;;;;;5071106;28;20020;-59
2021/01/01 02:38:23;;;;;;;4.72;1.30;;;23.10;75.70;;;;;;5066040;28;20031;-52
2021/01/01 02:40:51;;;;;;;3.53;1.25;;;23.10;75.70;;;;;;5071357;28;20094;-54
2021/01/01 02:43:19;;;;;;;6.68;1.73;;;23.20;75.70;;;;;;5071437;28;20041;-53
2021/01/01 02:45:47;;;;;;;2.72;1.20;;;23.10;75.50;;;;;;5070798;28;20027;-56
2021/01/01 02:48:20;;;;;;;5.30;1.75;;;23.20;75.10;;;;;;5066306;28;20078;-61
2021/01/01 02:50:48;;;;;;;3.30;1.30;;;23.20;75.80;;;;;;5071221;28;20103;-49
2021/01/01 02:53:15;;;;;;;5.13;1.65;;;23.30;75.10;;;;;;5071991;28;20074;-58
2021/01/01 02:55:43;;;;;;;6.05;1.42;;;23.20;75.00;;;;;;5068955;28;20054;-57
2021/01/01 02:58:10;;;;;;;5.22;1.80;;;23.30;75.10;;;;;;5065350;28;20039;-59
2021/01/01 03:00:42;;;;;;;5.07;1.23;;;23.30;75.10;;;;;;5070717;28;20036;-59
2021/01/01 03:03:10;;;;;;;3.25;0.90;;;23.30;75.00;;;;;;5067733;28;20037;-55
2021/01/01 03:05:37;;;;;;;2.95;1.10;;;23.30;74.70;;;;;;5070436;28;20048;-60
2021/01/01 03:08:06;;;;;;;3.10;1.25;;;23.30;75.20;;;;;;5066141;28;20079;-60
2021/01/01 03:10:33;;;;;;;3.60;1.30;;;23.30;74.40;;;;;;5069602;28;20375;-54
2021/01/01 03:13:01;;;;;;;3.08;1.10;;;23.30;74.50;;;;;;5070907;28;20032;-55
2021/01/01 03:15:28;;;;;;;4.38;1.23;;;23.30;75.30;;;;;;5070228;28;20020;-59
2021/01/01 03:17:56;;;;;;;4.10;1.58;;;23.30;75.00;;;;;;5066256;28;20071;-60
2021/01/01 03:20:23;;;;;;;5.00;1.23;;;23.30;74.90;;;;;;5072513;28;20487;-62
2021/01/01 03:22:50;;;;;;;3.10;1.13;;;23.30;74.30;;;;;;5072306;28;20054;-63
2021/01/01 03:25:18;;;;;;;3.35;1.00;;;23.30;74.70;;;;;;5072414;28;20448;-61
2021/01/01 03:27:45;;;;;;;4.07;1.42;;;23.20;74.90;;;;;;5070940;28;20021;-60
2021/01/01 03:30:13;;;;;;;5.22;1.23;;;23.20;75.10;;;;;;5072244;28;20025;-63
2021/01/01 03:32:40;;;;;;;2.28;0.85;;;23.20;75.20;;;;;;5055808;28;20505;-62
2021/01/01 03:35:08;;;;;;;3.00;1.33;;;23.10;75.20;;;;;;5069918;28;20024;-56
2021/01/01 03:37:37;;;;;;;5.55;1.30;;;23.20;75.60;;;;;;5072175;28;20024;-60
2021/01/01 03:40:06;;;;;;;3.88;1.55;;;23.20;75.00;;;;;;5072372;28;20033;-57
2021/01/01 03:42:33;;;;;;;4.25;1.25;;;23.20;75.40;;;;;;5070402;28;20039;-59
2021/01/01 03:45:01;;;;;;;2.80;1.30;;;23.10;75.50;;;;;;5070811;28;20038;-60
2021/01/01 03:47:28;;;;;;;3.65;1.42;;;23.10;75.60;;;;;;5070846;28;20147;-58
2021/01/01 03:49:56;;;;;;;3.22;1.10;;;23.10;75.70;;;;;;5071874;28;20111;-60
2021/01/01 03:52:23;;;;;;;3.58;1.10;;;23.10;75.70;;;;;;5071980;28;20059;-59
2021/01/01 03:54:51;;;;;;;3.42;1.45;;;23.10;75.30;;;;;;5071538;28;20035;-61
2021/01/01 03:57:18;;;;;;;3.97;1.20;;;23.00;75.70;;;;;;5071437;28;20059;-61
2021/01/01 03:59:46;;;;;;;2.00;0.77;;;23.00;75.70;;;;;;5070599;28;20459;-61
2021/01/01 04:02:13;;;;;;;4.53;1.38;;;23.00;75.40;;;;;;5071247;28;20509;-62
2021/01/01 04:04:40;;;;;;;3.88;1.35;;;23.00;75.50;;;;;;5076086;28;20100;-56
2021/01/01 04:07:08;;;;;;;1.83;1.02;;;23.00;75.60;;;;;;5076129;28;20021;-62
2021/01/01 04:09:35;;;;;;;2.17;1.20;;;23.00;75.70;;;;;;5075996;28;20044;-62
2021/01/01 04:12:03;;;;;;;5.22;1.50;;;22.90;76.00;;;;;;5075976;28;20025;-61
2021/01/01 04:14:30;;;;;;;5.93;0.90;;;22.90;76.20;;;;;;5074493;28;20042;-60
2021/01/01 04:16:58;;;;;;;3.88;1.23;;;22.90;76.20;;;;;;5075916;28;20124;-59
2021/01/01 04:19:25;;;;;;;6.70;1.40;;;22.90;76.20;;;;;;5075709;28;20037;-58
2021/01/01 04:21:52;;;;;;;4.05;1.20;;;22.90;76.40;;;;;;5075894;28;20044;-61
2021/01/01 04:24:20;;;;;;;4.45;1.60;;;22.90;76.10;;;;;;5075686;28;20530;-63
2021/01/01 04:26:47;;;;;;;6.75;1.85;;;22.90;76.30;;;;;;5076020;28;20020;-61
2021/01/01 04:29:15;;;;;;;3.58;1.27;;;22.90;76.40;;;;;;5075680;28;20328;-61
2021/01/01 04:31:43;;;;;;;3.50;1.05;;;22.90;76.40;;;;;;5075722;28;20020;-59
2021/01/01 04:34:11;;;;;;;5.90;1.70;;;22.90;76.30;;;;;;5075388;28;20036;-61
2021/01/01 04:36:39;;;;;;;3.33;1.13;;;22.80;76.50;;;;;;5075707;28;20021;-62
2021/01/01 04:39:07;;;;;;;5.43;1.40;;;22.80;76.40;;;;;;5075379;28;20025;-60
2021/01/01 04:41:36;;;;;;;3.55;1.10;;;22.80;76.20;;;;;;5075496;28;20402;-63
2021/01/01 04:44:05;;;;;;;3.38;1.00;;;22.80;76.30;;;;;;5074962;28;20132;-64
2021/01/01 04:46:32;;;;;;;2.63;1.02;;;22.80;76.50;;;;;;5075166;28;20025;-62
2021/01/01 04:49:01;;;;;;;3.03;1.08;;;22.80;76.50;;;;;;5075547;28;20479;-62
2021/01/01 04:51:29;;;;;;;3.38;1.20;;;22.80;76.60;;;;;;5075172;28;20028;-62
2021/01/01 04:53:56;;;;;;;3.92;1.20;;;22.80;76.40;;;;;;5074427;28;20037;-63
2021/01/01 04:56:24;;;;;;;4.25;1.13;;;22.70;76.20;;;;;;5075190;28;20051;-64
2021/01/01 04:58:54;;;;;;;3.33;1.10;;;22.70;76.50;;;;;;5075513;28;20044;-61
2021/01/01 05:01:24;;;;;;;5.65;1.38;;;22.70;76.60;;;;;;5075426;28;20035;-59
2021/01/01 05:03:52;;;;;;;5.13;1.30;;;22.70;76.10;;;;;;5066671;28;20171;-55
2021/01/01 05:06:34;;;;;;;6.38;1.60;;;22.70;76.10;;;;;;5070577;28;20375;-62
2021/01/01 05:09:02;;;;;;;4.05;1.33;;;22.70;76.30;;;;;;5072096;28;20508;-61
2021/01/01 05:11:30;;;;;;;4.25;1.48;;;22.70;76.20;;;;;;5073779;28;20031;-60
2021/01/01 05:13:59;;;;;;;5.13;1.23;;;22.70;76.30;;;;;;5070994;28;20028;-60
2021/01/01 05:16:27;;;;;;;2.35;1.05;;;22.70;76.30;;;;;;5070347;28;20093;-60
2021/01/01 05:18:55;;;;;;;2.92;1.27;;;22.70;75.70;;;;;;5073792;28;20498;-54
2021/01/01 05:21:26;;;;;;;2.45;1.08;;;22.80;75.90;;;;;;5073009;28;20567;-47
2021/01/01 05:23:56;;;;;;;2.30;0.85;;;22.80;76.10;;;;;;5066483;28;20040;-52
2021/01/01 05:26:30;;;;;;;1.80;0.80;;;22.80;76.00;;;;;;5072938;28;20028;-62
2021/01/01 05:29:06;;;;;;;1.92;0.80;;;22.80;76.00;;;;;;5069802;28;20032;-61
2021/01/01 05:31:40;;;;;;;5.05;1.30;;;22.80;75.80;;;;;;5069818;28;20026;-59
2021/01/01 05:34:09;;;;;;;8.00;1.08;;;22.80;75.80;;;;;;5070015;28;20121;-58
2021/01/01 05:36:39;;;;;;;5.40;1.17;;;22.80;75.70;;;;;;5072897;28;20032;-56
2021/01/01 05:39:19;;;;;;;3.60;1.08;;;22.80;75.80;;;;;;5073260;28;20498;-52
2021/01/01 05:41:52;;;;;;;4.57;1.23;;;22.80;75.10;;;;;;5070347;28;20025;-50
2021/01/01 05:44:31;;;;;;;4.53;1.58;;;22.80;75.50;;;;;;5072187;28;20040;-55
2021/01/01 05:47:05;;;;;;;1.63;0.90;;;22.80;75.60;;;;;;5072816;28;20233;-51
2021/01/01 05:49:38;;;;;;;3.55;0.90;;;22.90;75.20;;;;;;5073398;28;20121;-60
2021/01/01 05:52:21;;;;;;;5.72;1.10;;;22.80;75.20;;;;;;5068588;28;20077;-61
2021/01/01 05:54:59;;;;;;;2.92;0.98;;;22.80;75.40;;;;;;5069274;28;20089;-56
2021/01/01 05:57:38;;;;;;;4.18;1.20;;;22.90;75.20;;;;;;5070822;28;20028;-64
2021/01/01 06:00:10;;;;;;;3.50;1.05;;;22.90;75.30;;;;;;5073150;28;21062;-54
2021/01/01 06:02:39;;;;;;;3.53;1.02;;;22.90;75.60;;;;;;5068164;28;20037;-51
2021/01/01 06:05:13;;;;;;;2.53;1.10;;;22.90;75.60;;;;;;5071402;28;20139;-63
2021/01/01 06:07:41;;;;;;;2.55;1.08;;;22.90;75.20;;;;;;5072484;28;20375;-62
2021/01/01 06:10:11;;;;;;;4.75;1.23;;;22.90;75.60;;;;;;5072857;28;20024;-55
2021/01/01 06:12:39;;;;;;;2.33;0.80;;;22.90;74.60;;;;;;5068044;28;20036;-60
2021/01/01 06:15:08;;;;;;;3.15;0.90;;;22.90;75.10;;;;;;5071605;28;20025;-60
2021/01/01 06:17:48;;;;;;;1.73;1.00;;;22.90;75.40;;;;;;5070772;28;20029;-55
2021/01/01 06:20:24;;;;;;;2.78;0.85;;;22.90;75.10;;;;;;5072465;28;20407;-56
2021/01/01 06:23:02;;;;;;;3.70;1.45;;;22.90;75.30;;;;;;5067272;28;20043;-60
2021/01/01 06:25:31;;;;;;;2.78;1.30;;;22.90;74.90;;;;;;5069820;28;20035;-56
2021/01/01 06:27:58;;;;;;;27.55;2.35;;;22.90;74.60;;;;;;5072154;28;20137;-56
2021/01/01 06:30:26;;;;;;;2.78;1.23;;;22.90;74.50;;;;;;5071949;28;20032;-56
2021/01/01 06:32:54;;;;;;;1.77;0.70;;;22.90;74.90;;;;;;5067591;28;20096;-60
2021/01/01 06:35:24;;;;;;;3.75;0.80;;;22.90;75.00;;;;;;5070226;28;20028;-55
2021/01/01 06:37:53;;;;;;;3.72;1.00;;;22.90;74.70;;;;;;5067799;28;20036;-54
2021/01/01 06:40:26;;;;;;;6.50;1.33;;;22.90;74.90;;;;;;5071634;28;20040;-57
2021/01/01 06:43:02;;;;;;;3.85;1.08;;;22.90;75.00;;;;;;5067180;28;20037;-58
2021/01/01 06:45:41;;;;;;;3.13;0.95;;;22.90;75.00;;;;;;5068186;28;20060;-60
2021/01/01 06:48:21;;;;;;;4.03;1.10;;;22.90;74.90;;;;;;5071216;28;20031;-61
2021/01/01 06:50:53;;;;;;;2.58;1.10;;;22.90;75.10;;;;;;5071708;28;20051;-58
2021/01/01 06:53:30;;;;;;;3.65;0.90;;;22.90;75.20;;;;;;5065965;28;20048;-59
2021/01/01 06:56:13;;;;;;;7.35;1.65;;;22.90;75.20;;;;;;5068176;28;20067;-58
2021/01/01 06:58:40;;;;;;;26.23;5.68;;;22.90;75.30;;;;;;5069337;28;20028;-57
2021/01/01 07:01:18;;;;;;;29.17;6.18;;;22.90;74.70;;;;;;5071298;28;20376;-55
2021/01/01 07:03:45;;;;;;;59.83;10.23;;;22.90;72.80;;;;;;5066322;28;20037;-50
2021/01/01 07:06:12;;;;;;;54.88;9.65;;;22.90;71.60;;;;;;5071429;28;20024;-59
2021/01/01 07:08:43;;;;;;;42.15;7.53;;;22.90;72.40;;;;;;5072186;28;20086;-60
2021/01/01 07:11:10;;;;;;;32.85;6.60;;;22.90;72.60;;;;;;5071353;28;20081;-59
2021/01/01 07:13:45;;;;;;;36.28;5.90;;;22.90;71.40;;;;;;5063739;28;20036;-57
2021/01/01 07:16:14;;;;;;;33.03;5.80;;;22.90;71.40;;;;;;5068705;28;20017;-51
2021/01/01 07:18:42;;;;;;;52.95;7.57;;;22.90;71.50;;;;;;5068828;28;20029;-54
2021/01/01 07:21:15;;;;;;;31.33;6.30;;;22.90;71.70;;;;;;5071529;28;20040;-57
2021/01/01 07:23:43;;;;;;;36.85;6.15;;;22.90;72.10;;;;;;5070777;28;20033;-61
2021/01/01 07:26:11;;;;;;;41.15;6.95;;;22.90;72.60;;;;;;5070227;28;20428;-52
2021/01/01 07:28:41;;;;;;;40.75;6.57;;;22.90;72.90;;;;;;5066611;28;20391;-52
2021/01/01 07:31:12;;;;;;;47.72;7.53;;;22.80;73.60;;;;;;5070783;28;20074;-48
2021/01/01 07:33:39;;;;;;;23.97;5.30;;;22.80;73.30;;;;;;5071103;28;20032;-51
2021/01/01 07:36:09;;;;;;;24.67;5.95;;;22.80;73.50;;;;;;5069656;28;20017;-56
2021/01/01 07:38:42;;;;;;;52.90;8.50;;;22.80;73.60;;;;;;5065858;28;20499;-53
2021/01/01 07:41:09;;;;;;;30.25;7.18;;;22.80;73.80;;;;;;5070991;28;20024;-54
2021/01/01 07:43:38;;;;;;;27.15;7.25;;;22.80;73.80;;;;;;5071163;28;20043;-60
2021/01/01 07:46:08;;;;;;;21.25;5.80;;;22.80;74.00;;;;;;5069796;28;20016;-55
2021/01/01 07:48:36;;;;;;;29.20;5.82;;;22.70;74.00;;;;;;5066817;28;20029;-65
2021/01/01 07:51:09;;;;;;;25.27;5.47;;;22.70;74.00;;;;;;5071101;28;20036;-61
2021/01/01 07:53:37;;;;;;;33.67;6.78;;;22.70;74.20;;;;;;5070189;28;20154;-53
2021/01/01 07:56:07;;;;;;;30.38;5.95;;;22.70;74.20;;;;;;5069725;28;20025;-58
2021/01/01 07:58:36;;;;;;;25.90;5.63;;;22.70;74.30;;;;;;5065853;28;20024;-55
2021/01/01 08:01:10;;;;;;;26.15;6.15;;;22.70;74.40;;;;;;5070760;28;20063;-63
2021/01/01 08:03:39;;;;;;;28.25;6.03;;;22.70;74.50;;;;;;5070941;28;20040;-61
2021/01/01 08:06:10;;;;;;;31.38;6.72;;;22.60;74.40;;;;;;5069968;28;20041;-61
2021/01/01 08:08:38;;;;;;;21.08;5.45;;;22.60;74.50;;;;;;5066025;28;20107;-60
2021/01/01 08:11:07;;;;;;;19.75;5.43;;;22.60;74.70;;;;;;5070024;28;20472;-65
2021/01/01 08:13:35;;;;;;;26.63;5.55;;;22.60;74.70;;;;;;5067938;28;20028;-60
2021/01/01 08:16:13;;;;;;;20.65;5.55;;;22.60;75.00;;;;;;5069546;28;20093;-56
2021/01/01 08:18:41;;;;;;;28.45;6.97;;;22.60;74.90;;;;;;5060657;28;20024;-51
2021/01/01 08:21:09;;;;;;;24.88;4.88;;;22.60;74.90;;;;;;5069400;28;20068;-54
2021/01/01 08:23:46;;;;;;;34.75;6.00;;;22.50;74.90;;;;;;5069234;28;20690;-55
2021/01/01 08:26:15;;;;;;;21.80;4.95;;;22.60;75.00;;;;;;5066248;28;20037;-57
2021/01/01 08:28:43;;;;;;;22.77;4.90;;;22.50;75.10;;;;;;5064291;28;20033;-52
2021/01/01 08:31:11;;;;;;;25.48;4.47;;;22.50;75.10;;;;;;5070588;28;20021;-54
2021/01/01 08:33:41;;;;;;;18.67;5.07;;;22.50;75.20;;;;;;5070617;28;20028;-51
2021/01/01 08:36:10;;;;;;;21.45;5.15;;;22.50;75.30;;;;;;5070171;28;20027;-58
2021/01/01 08:38:40;;;;;;;18.90;4.85;;;22.50;75.50;;;;;;5065154;28;20073;-53
2021/01/01 08:41:14;;;;;;;14.00;4.60;;;22.50;75.60;;;;;;5070704;28;20111;-56
2021/01/01 08:43:42;;;;;;;14.25;4.35;;;22.50;75.80;;;;;;5070276;28;20127;-52
2021/01/01 08:46:17;;;;;;;22.42;4.45;;;22.50;75.80;;;;;;5069795;28;20025;-54
2021/01/01 08:48:45;;;;;;;20.23;4.30;;;22.40;76.00;;;;;;5063680;28;20025;-50
2021/01/01 08:51:12;;;;;;;15.63;3.97;;;22.40;76.10;;;;;;5074434;28;20029;-50
2021/01/01 08:53:41;;;;;;;21.17;5.07;;;22.40;76.10;;;;;;5074102;28;20024;-53
2021/01/01 08:56:16;;;;;;;18.95;4.97;;;22.40;76.30;;;;;;5072652;28;20039;-61
2021/01/01 08:58:44;;;;;;;26.10;4.38;;;22.40;77.20;;;;;;5067829;28;20025;-58
2021/01/01 09:01:18;;;;;;;17.10;4.43;;;22.40;76.90;;;;;;5074251;28;20024;-60
2021/01/01 09:03:45;;;;;;;20.25;4.38;;;22.40;77.10;;;;;;5073506;28;20037;-62
2021/01/01 09:06:18;;;;;;;24.10;4.57;;;22.40;77.40;;;;;;5073080;28;20032;-63
2021/01/01 09:08:45;;;;;;;17.80;4.47;;;22.40;77.40;;;;;;5065024;28;20028;-59
2021/01/01 09:11:23;;;;;;;18.15;5.38;;;22.40;77.90;;;;;;5074231;28;20356;-60
2021/01/01 09:14:04;;;;;;;16.50;4.00;;;22.50;77.60;;;;;;5074145;28;20025;-59
2021/01/01 09:16:32;;;;;;;22.52;4.88;;;22.50;77.90;;;;;;5072894;28;20032;-59
2021/01/01 09:19:12;;;;;;;13.18;4.35;;;22.40;78.00;;;;;;5068070;28;20378;-52
2021/01/01 09:21:40;;;;;;;15.18;4.18;;;22.40;78.20;;;;;;5072174;28;20032;-51
2021/01/01 09:24:08;;;;;;;14.98;4.13;;;22.40;78.10;;;;;;5073675;28;20072;-48
2021/01/01 09:26:35;;;;;;;20.40;4.05;;;22.40;78.00;;;;;;5072785;28;20043;-54
2021/01/01 09:29:08;;;;;;;9.05;3.92;;;22.40;78.00;;;;;;5068387;28;20097;-55
2021/01/01 09:31:41;;;;;;;15.85;4.07;;;22.40;77.80;;;;;;5072956;28;20133;-53
2021/01/01 09:34:09;;;;;;;17.55;4.88;;;22.40;77.70;;;;;;5072202;28;20443;-47
2021/01/01 09:36:39;;;;;;;12.85;3.55;;;22.40;77.80;;;;;;5072546;28;20036;-55
2021/01/01 09:39:08;;;;;;;16.05;4.68;;;22.30;77.90;;;;;;5067368;28;20021;-54
2021/01/01 09:41:40;;;;;;;13.77;4.03;;;22.30;78.00;;;;;;5070323;28;20101;-58
2021/01/01 09:44:07;;;;;;;10.95;2.88;;;22.30;78.00;;;;;;5071110;28;20090;-57
2021/01/01 09:46:41;;;;;;;16.85;3.50;;;22.30;77.60;;;;;;5071589;28;20041;-55
2021/01/01 09:49:08;;;;;;;12.05;3.13;;;22.30;77.70;;;;;;5072861;28;20047;-56
2021/01/01 09:51:36;;;;;;;15.40;2.88;;;22.30;77.70;;;;;;5062526;28;20033;-52
2021/01/01 09:54:03;;;;;;;13.40;4.05;;;22.20;77.70;;;;;;5072078;28;20103;-54
2021/01/01 09:56:35;;;;;;;9.98;3.17;;;22.20;77.90;;;;;;5071714;28;20043;-57
2021/01/01 09:59:03;;;;;;;7.85;3.10;;;22.20;77.80;;;;;;5072534;28;20035;-58
2021/01/01 10:01:31;;;;;;;11.05;3.00;;;22.20;77.70;;;;;;5065764;28;20395;-59
2021/01/01 10:04:00;;;;;;;13.00;4.20;;;22.20;77.60;;;;;;5071916;28;20068;-58
2021/01/01 10:06:27;;;;;;;12.52;2.92;;;22.20;77.60;;;;;;5072128;28;20433;-55
2021/01/01 10:08:55;;;;;;;14.48;3.25;;;22.20;77.60;;;;;;5071745;28;20438;-55
2021/01/01 10:11:22;;;;;;;12.95;3.28;;;22.20;77.50;;;;;;5064267;28;20024;-60
2021/01/01 10:13:49;;;;;;;9.15;3.20;;;22.20;77.50;;;;;;5071096;28;20031;-50
2021/01/01 10:16:20;;;;;;;12.27;3.90;;;22.20;77.60;;;;;;5071674;28;20060;-50
2021/01/01 10:18:47;;;;;;;10.73;3.95;;;22.20;77.50;;;;;;5072189;28;20032;-56
2021/01/01 10:21:20;;;;;;;14.43;3.58;;;22.20;77.50;;;;;;5067156;28;20053;-56
2021/01/01 10:23:49;;;;;;;9.15;3.05;;;22.20;77.40;;;;;;5072017;28;20043;-52
2021/01/01 10:26:16;;;;;;;9.45;3.03;;;22.20;77.40;;;;;;5071602;28;20494;-48
2021/01/01 10:28:44;;;;;;;9.57;3.20;;;22.20;77.30;;;;;;5072480;28;20028;-54
2021/01/01 10:31:12;;;;;;;9.73;2.88;;;22.20;77.30;;;;;;5067932;28;20016;-54
2021/01/01 10:33:39;;;;;;;12.77;3.28;;;22.20;77.30;;;;;;5071572;28;20324;-58
2021/01/01 10:36:12;;;;;;;10.00;3.38;;;22.20;77.20;;;;;;5070051;28;20048;-59
2021/01/01 10:38:39;;;;;;;12.65;2.40;;;22.20;77.20;;;;;;5070995;28;20460;-58
2021/01/01 10:41:07;;;;;;;9.77;2.45;;;22.20;77.20;;;;;;5068069;28;20574;-58
2021/01/01 10:43:34;;;;;;;8.70;3.00;;;22.20;77.20;;;;;;5066779;28;20540;-51
2021/01/01 10:46:01;;;;;;;10.65;3.38;;;22.20;77.10;;;;;;5071062;28;20475;-53
2021/01/01 10:48:29;;;;;;;8.70;2.85;;;22.20;77.20;;;;;;5071855;28;20124;-51
2021/01/01 10:50:56;;;;;;;9.85;3.22;;;22.10;77.10;;;;;;5067283;28;20016;-62
2021/01/01 10:53:24;;;;;;;7.95;2.50;;;22.10;77.10;;;;;;5071942;28;20025;-58
2021/01/01 10:55:51;;;;;;;8.20;2.33;;;22.10;77.20;;;;;;5070688;28;20033;-55
2021/01/01 10:58:25;;;;;;;6.78;2.30;;;22.10;77.10;;;;;;5071674;28;20039;-52
2021/01/01 11:00:58;;;;;;;7.53;2.80;;;22.10;77.10;;;;;;5067274;28;20028;-52
2021/01/01 11:03:25;;;;;;;13.52;3.35;;;22.10;77.00;;;;;;5071122;28;20078;-57
2021/01/01 11:05:53;;;;;;;10.93;3.10;;;22.10;77.10;;;;;;5070425;28;20046;-59
2021/01/01 11:08:20;;;;;;;10.25;2.92;;;22.00;77.00;;;;;;5071358;28;20017;-59
2021/01/01 11:10:49;;;;;;;5.88;2.15;;;22.10;76.90;;;;;;5067423;28;20043;-60
2021/01/01 11:13:16;;;;;;;12.80;2.75;;;22.10;76.90;;;;;;5071715;28;20029;-57
2021/01/01 12:22:59;;;;;;;5.97;2.13;;;21.80;77.80;;;;;;5071516;28;20028;-59
2021/01/01 12:25:28;;;;;;;9.35;2.20;;;21.80;78.00;;;;;;5075909;28;20497;-61
2021/01/01 12:28:05;;;;;;;7.05;1.83;;;21.80;78.00;;;;;;5075818;28;20100;-55
2021/01/01 12:30:33;;;;;;;6.97;1.77;;;21.80;78.10;;;;;;5075640;28;20131;-60
2021/01/01 12:33:02;;;;;;;6.38;2.17;;;21.70;78.20;;;;;;5075555;28;20387;-58
2021/01/01 12:35:30;;;;;;;8.23;2.15;;;21.70;78.30;;;;;;5074237;28;20020;-61
2021/01/01 12:38:02;;;;;;;5.68;1.90;;;21.70;78.40;;;;;;5075199;28;20073;-61
2021/01/01 12:40:32;;;;;;;10.68;2.38;;;21.70;78.50;;;;;;5075570;28;20028;-56
2021/01/01 12:43:02;;;;;;;6.82;2.30;;;21.70;78.50;;;;;;5068409;28;20033;-60
2021/01/01 12:45:30;;;;;;;6.80;1.92;;;21.70;78.60;;;;;;5068367;28;20102;-55
2021/01/01 12:47:58;;;;;;;7.55;2.20;;;21.70;78.70;;;;;;5074207;28;20038;-63
2021/01/01 12:50:25;;;;;;;5.88;1.90;;;21.60;78.60;;;;;;5073899;28;20036;-64
2021/01/01 12:52:57;;;;;;;5.93;2.28;;;21.60;78.60;;;;;;5073432;28;20052;-62
2021/01/01 12:55:26;;;;;;;5.90;2.33;;;21.60;78.60;;;;;;5069717;28;20063;-61
2021/01/01 12:57:54;;;;;;;5.63;2.13;;;21.60;78.60;;;;;;5073837;28;20040;-64
2021/01/01 13:00:23;;;;;;;7.20;1.83;;;21.60;78.70;;;;;;5073623;28;20036;-59
2021/01/01 13:02:51;;;;;;;9.80;2.22;;;21.60;78.70;;;;;;5073423;28;20050;-58
2021/01/01 13:05:19;;;;;;;6.30;1.88;;;21.60;78.80;;;;;;5068028;28;20399;-57
2021/01/01 13:07:46;;;;;;;6.30;2.60;;;21.60;78.80;;;;;;5073668;28;20025;-61
2021/01/01 13:10:13;;;;;;;6.65;2.05;;;21.50;78.70;;;;;;5073706;28;20140;-64
2021/01/01 13:12:41;;;;;;;8.20;2.55;;;21.50;78.80;;;;;;5073546;28;20032;-61
2021/01/01 13:15:09;;;;;;;3.95;1.90;;;21.50;78.80;;;;;;5069279;28;20060;-61
2021/01/01 13:17:36;;;;;;;6.78;2.17;;;21.50;78.80;;;;;;5073679;28;20118;-58
2021/01/01 13:20:06;;;;;;;4.38;1.67;;;21.50;78.90;;;;;;5069723;28;20503;-63
2021/01/01 13:22:34;;;;;;;6.60;1.83;;;21.50;78.90;;;;;;5068535;28;20471;-60
2021/01/01 13:25:01;;;;;;;5.25;2.30;;;21.50;79.00;;;;;;5068667;28;20032;-63
2021/01/01 13:27:28;;;;;;;5.07;2.25;;;21.50;79.00;;;;;;5073213;28;20056;-60
2021/01/01 13:29:56;;;;;;;6.07;2.22;;;21.50;79.00;;;;;;5072852;28;20501;-64
2021/01/01 13:32:23;;;;;;;7.35;2.22;;;21.50;79.00;;;;;;5073316;28;20028;-62
2021/01/01 13:34:51;;;;;;;4.50;1.52;;;21.50;79.10;;;;;;5066283;28;20017;-63
2021/01/01 13:37:18;;;;;;;4.07;2.08;;;21.40;79.00;;;;;;5072976;28;20502;-63
2021/01/01 13:39:46;;;;;;;6.30;1.73;;;21.40;79.00;;;;;;5073203;28;20027;-61
2021/01/01 13:42:18;;;;;;;5.22;2.40;;;21.40;79.00;;;;;;5071529;28;20404;-62
2021/01/01 13:44:45;;;;;;;9.73;2.25;;;21.40;79.10;;;;;;5066152;28;20079;-63
2021/01/01 13:47:15;;;;;;;3.08;1.80;;;21.40;79.10;;;;;;5073375;28;20028;-62
2021/01/01 13:49:43;;;;;;;6.78;1.90;;;21.40;79.20;;;;;;5072783;28;20327;-62
2021/01/01 13:52:13;;;;;;;4.72;1.95;;;21.40;79.20;;;;;;5074101;28;20044;-61
2021/01/01 13:54:40;;;;;;;6.40;1.98;;;21.40;79.20;;;;;;5066058;28;20029;-57
2021/01/01 13:57:07;;;;;;;5.10;1.65;;;21.40;79.20;;;;;;5070316;28;20133;-62
2021/01/01 13:59:35;;;;;;;6.38;2.80;;;21.40;79.10;;;;;;5072228;28;20027;-62